KPDK

Dekalb-Peachtree Airport

Atlanta, Georgia, USA
METAR KPDK 200053Z 00000KT 10SM CLR 03/M11 A3021 RMK AO2 SLP249 T00331111
Observed Flight Rules
Jan-20 @ 00:53 UTC (24 minutes ago) Visual Flight Rules
Wind Visibility Clouds
Calm 10 miles
  • Clear skies
Temperatures Readings
Current 3°C / 37°F
Dewpoint -11°C / 12°F
Humidity 35%
Altimeter 30.21" Hg
Pressure 1024.9 hPa
Elevation 302
METAR KPDK 200053Z 00000KT 10SM CLR 03/M11 A3021 RMK AO2 SLP249 T00331111
Observed Flight Rules
Jan-20 @ 00:53 UTC
(24 minutes ago)
VFR
Wind Visibility
Calm 10 miles
Clouds
  • Clear skies
Temperature Dewpoint
3°C / 37°F -11°C / 12°F
Humidity Altimeter Pressure
35% 30.21" Hg 1024.9 hPa